createdAt,value
2019-05-19T00:01:59.650Z,99475.09
2019-05-19T00:04:28.075Z,99461.94
2019-05-19T00:06:56.474Z,99471.08
2019-05-19T00:09:24.906Z,99467.80
2019-05-19T00:11:53.478Z,99465.73
2019-05-19T00:14:21.944Z,99470.55
2019-05-19T00:16:50.438Z,99470.30
2019-05-19T00:19:26.582Z,99472.45
2019-05-19T00:21:49.017Z,99472.91
2019-05-19T00:24:17.433Z,99471.73
2019-05-19T00:26:45.864Z,99473.45
2019-05-19T00:29:14.438Z,99467.78
2019-05-19T00:31:42.858Z,99469.72
2019-05-19T00:34:11.278Z,99467.64
2019-05-19T00:36:39.768Z,99461.78
2019-05-19T00:39:08.226Z,99459.52
2019-05-19T00:41:36.709Z,99452.84
2019-05-19T00:44:05.296Z,99441.26
2019-05-19T00:46:33.736Z,99448.00
2019-05-19T00:49:02.472Z,99438.16
2019-05-19T00:51:31.357Z,99445.44
2019-05-19T00:53:59.922Z,99447.80
2019-05-19T00:56:28.498Z,99444.61
2019-05-19T00:58:58.610Z,99439.45
2019-05-19T01:01:27.075Z,99438.94
2019-05-19T01:03:55.563Z,99442.53
2019-05-19T01:06:24.124Z,99440.88
2019-05-19T01:08:52.544Z,99439.47
2019-05-19T01:11:20.977Z,99440.03
2019-05-19T01:13:49.455Z,99435.50
2019-05-19T01:16:17.965Z,99435.33
2019-05-19T01:18:46.462Z,99432.72
2019-05-19T01:21:15.435Z,99426.05
2019-05-19T01:23:43.880Z,99428.81
2019-05-19T01:26:12.365Z,99426.46
2019-05-19T01:28:40.851Z,99426.02
2019-05-19T01:31:09.268Z,99424.47
2019-05-19T01:33:37.746Z,99428.56
2019-05-19T01:36:06.256Z,99425.92
2019-05-19T01:38:34.729Z,99429.39
2019-05-19T01:41:03.308Z,99421.08
2019-05-19T01:43:31.804Z,99422.95
2019-05-19T01:46:00.250Z,99427.50
2019-05-19T01:48:28.698Z,99414.91
2019-05-19T01:50:57.125Z,99419.94
2019-05-19T01:53:25.525Z,99421.84
2019-05-19T01:55:53.953Z,99420.36
2019-05-19T01:58:22.388Z,99423.98
2019-05-19T02:00:50.955Z,99419.41
2019-05-19T02:03:19.348Z,99420.23
2019-05-19T02:05:47.828Z,99408.68
2019-05-19T02:08:16.224Z,99415.25
2019-05-19T02:10:44.636Z,99414.08
2019-05-19T02:13:13.064Z,99406.81
2019-05-19T02:15:41.582Z,99408.97
2019-05-19T02:18:10.044Z,99408.05
2019-05-19T02:20:38.460Z,99407.77
2019-05-19T02:23:06.985Z,99402.56
2019-05-19T02:25:35.416Z,99405.70
2019-05-19T02:28:03.822Z,99401.88
2019-05-19T02:30:32.258Z,99403.42
2019-05-19T02:33:00.691Z,99402.66
2019-05-19T02:35:29.207Z,99406.75
2019-05-19T02:37:57.694Z,99408.69
2019-05-19T02:40:26.253Z,99410.81
2019-05-19T02:42:55.998Z,99404.49
2019-05-19T02:45:27.829Z,99406.50
2019-05-19T02:47:57.806Z,99410.75
2019-05-19T02:50:26.886Z,99398.41
2019-05-19T02:52:57.442Z,99401.39
2019-05-19T02:55:26.858Z,99404.44
2019-05-19T02:57:56.208Z,99406.56
2019-05-19T03:00:36.233Z,99410.17
2019-05-19T03:03:04.698Z,99407.22
2019-05-19T03:05:33.140Z,99409.94
2019-05-19T03:08:01.643Z,99409.69
2019-05-19T03:10:30.448Z,99412.33
2019-05-19T03:12:58.941Z,99411.20
2019-05-19T03:15:27.439Z,99409.22
2019-05-19T03:17:55.907Z,99413.39
2019-05-19T03:20:24.320Z,99409.62
2019-05-19T03:22:52.750Z,99412.38
2019-05-19T03:25:21.224Z,99412.24
2019-05-19T03:27:49.681Z,99417.28
2019-05-19T03:30:28.825Z,99415.51
2019-05-19T03:33:08.289Z,99417.47
2019-05-19T03:35:36.731Z,99428.50
2019-05-19T03:38:05.143Z,99437.73
2019-05-19T03:40:33.671Z,99434.51
2019-05-19T03:43:02.153Z,99443.09
2019-05-19T03:45:30.564Z,99442.22
2019-05-19T03:47:59.080Z,99443.55
2019-05-19T03:50:27.524Z,99443.34
2019-05-19T03:52:56.008Z,99448.20
2019-05-19T03:55:24.597Z,99444.66
2019-05-19T03:57:52.984Z,99445.30
2019-05-19T04:00:22.151Z,99444.52
2019-05-19T04:02:50.672Z,99441.94
2019-05-19T04:05:19.172Z,99444.66
2019-05-19T04:07:47.609Z,99445.72
2019-05-19T04:10:16.225Z,99448.88
2019-05-19T04:12:44.637Z,99457.65
2019-05-19T04:15:13.779Z,99459.82
2019-05-19T04:17:42.300Z,99455.96
2019-05-19T04:20:11.067Z,99458.89
2019-05-19T04:22:39.622Z,99454.81
2019-05-19T04:25:08.487Z,99457.16
2019-05-19T04:27:36.911Z,99459.58
2019-05-19T04:30:09.290Z,99452.98
2019-05-19T04:32:37.786Z,99447.70
2019-05-19T04:35:07.808Z,99453.10
2019-05-19T04:37:36.276Z,99452.28
2019-05-19T04:40:06.093Z,99448.92
2019-05-19T04:42:34.544Z,99453.19
2019-05-19T04:45:03.017Z,99454.73
2019-05-19T04:47:31.403Z,99450.63
2019-05-19T04:49:59.853Z,99457.29
2019-05-19T04:52:28.379Z,99459.45
2019-05-19T04:54:56.818Z,99456.60
2019-05-19T04:57:25.260Z,99456.46
2019-05-19T04:59:53.697Z,99460.44
2019-05-19T05:02:22.228Z,99457.97
2019-05-19T05:04:50.723Z,99463.80
2019-05-19T05:07:19.190Z,99469.87
2019-05-19T05:09:47.639Z,99469.09
2019-05-19T05:12:16.041Z,99469.28
2019-05-19T05:14:44.467Z,99469.00
2019-05-19T05:17:12.917Z,99468.72
2019-05-19T05:19:41.420Z,99470.47
2019-05-19T05:22:21.325Z,99472.34
2019-05-19T05:24:40.017Z,99468.71
2019-05-19T05:27:08.467Z,99472.12
2019-05-19T05:29:36.873Z,99468.22
2019-05-19T05:32:05.455Z,99473.05
2019-05-19T05:34:33.894Z,99471.72
2019-05-19T05:37:02.409Z,99476.98
2019-05-19T05:39:30.801Z,99479.90
2019-05-19T05:41:59.239Z,99477.20
2019-05-19T05:44:27.715Z,99481.49
2019-05-19T05:46:56.258Z,99475.14
2019-05-19T05:49:24.698Z,99475.02
2019-05-19T05:51:53.147Z,99476.04
2019-05-19T05:54:21.563Z,99472.17
2019-05-19T05:56:49.998Z,99471.84
2019-05-19T05:59:18.422Z,99468.98
2019-05-19T06:01:46.940Z,99472.42
2019-05-19T06:04:15.424Z,99471.94
2019-05-19T06:06:45.811Z,99467.56
2019-05-19T06:09:14.084Z,99469.31
2019-05-19T06:11:42.517Z,99469.50
2019-05-19T06:14:10.956Z,99467.05
2019-05-19T06:16:39.366Z,99461.67
2019-05-19T06:19:07.900Z,99460.48
2019-05-19T06:21:36.367Z,99458.70
2019-05-19T06:24:04.923Z,99457.52
2019-05-19T06:26:33.387Z,99457.30
2019-05-19T06:29:02.012Z,99461.13
2019-05-19T06:31:30.409Z,99456.07
2019-05-19T06:33:58.940Z,99451.17
2019-05-19T06:36:27.349Z,99455.59
2019-05-19T06:38:56.270Z,99456.65
2019-05-19T06:41:25.123Z,99453.48
2019-05-19T06:43:53.578Z,99457.16
2019-05-19T06:46:22.069Z,99463.84
2019-05-19T06:48:50.585Z,99463.72
2019-05-19T06:51:21.735Z,99463.44
2019-05-19T06:53:50.147Z,99464.16
2019-05-19T06:56:18.731Z,99470.72
2019-05-19T06:58:47.159Z,99469.06
2019-05-19T07:01:15.614Z,99474.02
2019-05-19T07:03:44.091Z,99478.46
2019-05-19T07:06:12.741Z,99479.48
2019-05-19T07:08:41.231Z,99476.22
2019-05-19T07:11:09.655Z,99473.86
2019-05-19T07:13:38.195Z,99472.36
2019-05-19T07:16:06.669Z,99470.00
2019-05-19T07:18:35.131Z,99471.33
2019-05-19T07:21:05.081Z,99466.09
2019-05-19T07:23:33.581Z,99463.11
2019-05-19T07:26:02.006Z,99460.42
2019-05-19T07:28:30.499Z,99457.31
2019-05-19T07:30:58.940Z,99456.25
2019-05-19T07:33:27.441Z,99446.58
2019-05-19T07:35:55.985Z,99443.82
2019-05-19T07:38:24.493Z,99442.89
2019-05-19T07:40:52.906Z,99441.05
2019-05-19T07:43:21.657Z,99436.51
2019-05-19T07:45:50.153Z,99445.40
2019-05-19T07:48:18.573Z,99441.69
2019-05-19T07:50:47.007Z,99444.09
2019-05-19T07:53:15.531Z,99443.27
2019-05-19T07:55:43.979Z,99445.19
2019-05-19T07:58:12.544Z,99451.28
2019-05-19T08:00:41.010Z,99449.82
2019-05-19T08:03:09.632Z,99444.47
2019-05-19T08:05:38.032Z,99450.41
2019-05-19T08:08:06.531Z,99446.91
2019-05-19T08:10:35.031Z,99446.70
2019-05-19T08:13:03.585Z,99443.03
2019-05-19T08:15:32.097Z,99449.89
2019-05-19T08:18:00.648Z,99449.17
2019-05-19T08:20:29.076Z,99443.84
2019-05-19T08:22:57.546Z,99437.41
2019-05-19T08:25:26.065Z,99439.27
2019-05-19T08:27:54.563Z,99438.14
2019-05-19T08:30:23.047Z,99433.21
2019-05-19T08:32:51.566Z,99433.27
2019-05-19T08:35:20.015Z,99429.28
2019-05-19T08:37:48.431Z,99437.08
2019-05-19T08:40:16.945Z,99433.73
2019-05-19T08:42:45.367Z,99435.88
2019-05-19T08:45:14.124Z,99432.50
2019-05-19T08:47:42.579Z,99434.09
2019-05-19T08:50:12.117Z,99432.22
2019-05-19T08:52:40.544Z,99429.59
2019-05-19T08:55:09.105Z,99426.88
2019-05-19T08:57:40.027Z,99422.55
2019-05-19T09:00:09.013Z,99416.56
2019-05-19T09:02:37.445Z,99416.86
2019-05-19T09:05:07.129Z,99420.05
2019-05-19T09:07:35.556Z,99421.83
2019-05-19T09:10:06.522Z,99417.68
2019-05-19T09:12:34.964Z,99415.83
2019-05-19T09:15:03.434Z,99416.76
2019-05-19T09:17:31.877Z,99417.74
2019-05-19T09:20:00.447Z,99417.42
2019-05-19T09:22:28.854Z,99415.98
2019-05-19T09:24:57.459Z,99414.94
2019-05-19T09:27:25.864Z,99416.91
2019-05-19T09:29:54.277Z,99411.47
2019-05-19T09:32:22.783Z,99407.73
2019-05-19T09:34:51.213Z,99407.59
2019-05-19T09:37:19.624Z,99406.61
2019-05-19T09:39:48.154Z,99401.50
2019-05-19T09:42:16.614Z,99400.16
2019-05-19T09:44:45.107Z,99402.84
2019-05-19T09:47:13.528Z,99401.80
2019-05-19T09:49:41.955Z,99402.24
2019-05-19T09:52:10.365Z,99406.70
2019-05-19T09:54:45.418Z,99404.54
2019-05-19T09:57:08.949Z,99399.13
2019-05-19T09:59:37.359Z,99402.16
2019-05-19T10:02:05.853Z,99394.62
2019-05-19T10:04:34.311Z,99398.66
2019-05-19T10:07:03.991Z,99397.27
2019-05-19T10:09:55.799Z,99393.16
2019-05-19T10:12:24.220Z,99396.70
2019-05-19T10:14:52.909Z,99382.33
2019-05-19T10:17:21.411Z,99383.28
2019-05-19T10:19:49.978Z,99378.00
2019-05-19T10:22:21.495Z,99372.64
2019-05-19T10:25:10.459Z,99371.44
2019-05-19T10:27:21.773Z,99371.14
2019-05-19T10:29:50.469Z,99370.47
2019-05-19T10:32:18.985Z,99373.50
2019-05-19T10:34:47.453Z,99363.88
2019-05-19T10:37:15.929Z,99362.30
2019-05-19T10:39:44.373Z,99370.00
2019-05-19T10:42:12.849Z,99362.79
2019-05-19T10:44:41.262Z,99360.66
2019-05-19T10:47:09.681Z,99361.53
2019-05-19T10:49:38.457Z,99362.45
2019-05-19T10:52:06.937Z,99358.34
2019-05-19T10:54:35.376Z,99354.66
2019-05-19T10:57:03.792Z,99358.94
2019-05-19T10:59:32.224Z,99362.08
2019-05-19T11:02:00.616Z,99361.15
2019-05-19T11:04:29.105Z,99356.18
2019-05-19T11:06:57.549Z,99354.49
2019-05-19T11:09:25.960Z,99355.83
2019-05-19T11:11:54.507Z,99355.70
2019-05-19T11:14:25.785Z,99349.03
2019-05-19T11:16:54.304Z,99345.13
2019-05-19T11:19:22.723Z,99343.72
2019-05-19T11:21:51.123Z,99348.45
2019-05-19T11:24:19.548Z,99343.19
2019-05-19T11:26:47.957Z,99340.85
2019-05-19T11:29:16.409Z,99347.89
2019-05-19T11:31:44.827Z,99345.06
2019-05-19T11:34:13.283Z,99349.44
2019-05-19T11:36:41.686Z,99346.11
2019-05-19T11:39:10.155Z,99352.08
2019-05-19T11:41:38.723Z,99348.27
2019-05-19T11:44:07.186Z,99347.39
2019-05-19T11:46:35.703Z,99351.50
2019-05-19T11:49:04.093Z,99353.11
2019-05-19T11:51:32.598Z,99342.72
2019-05-19T11:54:00.948Z,99346.19
2019-05-19T11:56:29.440Z,99338.64
2019-05-19T11:58:57.951Z,99343.63
2019-05-19T12:01:26.444Z,99338.12
2019-05-19T12:03:55.552Z,99338.63
2019-05-19T12:06:38.087Z,99343.92
2019-05-19T12:08:54.322Z,99337.80
2019-05-19T12:11:22.786Z,99333.53
2019-05-19T12:13:51.325Z,99337.66
2019-05-19T12:16:19.729Z,99334.44
2019-05-19T12:18:48.125Z,99333.83
2019-05-19T12:21:16.558Z,99335.84
2019-05-19T12:23:44.993Z,99334.34
2019-05-19T12:26:22.847Z,99332.95
2019-05-19T12:28:43.576Z,99327.88
2019-05-19T12:31:12.011Z,99323.28
2019-05-19T12:33:51.634Z,99327.12
2019-05-19T12:36:10.603Z,99319.42
2019-05-19T12:38:39.050Z,99313.36
2019-05-19T12:41:07.632Z,99323.59
2019-05-19T12:43:36.079Z,99317.98
2019-05-19T12:46:14.868Z,99315.67
2019-05-19T12:48:34.910Z,99315.95
2019-05-19T12:51:03.373Z,99312.02
2019-05-19T12:53:31.783Z,99308.14
2019-05-19T12:56:00.232Z,99309.11
2019-05-19T12:58:28.669Z,99300.72
2019-05-19T13:00:57.077Z,99304.66
2019-05-19T13:03:25.586Z,99295.81
2019-05-19T13:05:54.026Z,99297.40
2019-05-19T13:08:22.435Z,99291.48
2019-05-19T13:10:52.304Z,99291.77
2019-05-19T13:13:20.758Z,99289.75
2019-05-19T13:15:49.237Z,99290.46
2019-05-19T13:18:17.662Z,99287.55
2019-05-19T13:20:46.079Z,99284.98
2019-05-19T13:23:14.493Z,99284.33
2019-05-19T13:25:42.905Z,99280.98
2019-05-19T13:28:11.334Z,99279.22
2019-05-19T13:30:39.760Z,99278.94
2019-05-19T13:33:08.288Z,99281.94
2019-05-19T13:35:36.721Z,99269.23
2019-05-19T13:38:05.124Z,99268.82
2019-05-19T13:40:33.555Z,99267.16
2019-05-19T13:43:02.364Z,99265.47
2019-05-19T13:45:30.852Z,99263.48
2019-05-19T13:47:59.356Z,99264.41
2019-05-19T13:50:27.835Z,99263.41
2019-05-19T13:52:56.320Z,99255.16
2019-05-19T13:55:24.798Z,99250.77
2019-05-19T13:57:55.527Z,99248.84
2019-05-19T14:00:27.914Z,99243.56
2019-05-19T14:02:56.331Z,99232.08
2019-05-19T14:05:24.726Z,99240.69
2019-05-19T14:07:53.163Z,99233.13
2019-05-19T14:10:21.630Z,99232.19
2019-05-19T14:12:50.104Z,99234.02
2019-05-19T14:15:18.674Z,99229.98
2019-05-19T14:17:47.092Z,99218.91
2019-05-19T14:20:15.701Z,99221.55
2019-05-19T14:22:44.140Z,99222.58
2019-05-19T14:25:13.071Z,99224.59
2019-05-19T14:27:41.632Z,99220.42
2019-05-19T14:30:11.699Z,99227.34
2019-05-19T14:32:40.225Z,99223.93
2019-05-19T14:35:09.460Z,99222.87
2019-05-19T14:37:37.881Z,99217.06
2019-05-19T14:40:07.255Z,99208.45
2019-05-19T14:42:49.465Z,99207.06
2019-05-19T14:45:18.987Z,99204.02
2019-05-19T14:47:47.560Z,99212.05
2019-05-19T14:50:16.833Z,99214.45
2019-05-19T14:52:45.330Z,99211.64
2019-05-19T14:55:14.421Z,99216.91
2019-05-19T14:57:45.283Z,99208.78
2019-05-19T15:00:13.930Z,99214.34
2019-05-19T15:02:42.331Z,99208.55
2019-05-19T15:05:11.278Z,99217.61
2019-05-19T15:07:39.702Z,99213.74
2019-05-19T15:10:08.481Z,99209.17
2019-05-19T15:12:36.908Z,99200.14
2019-05-19T15:15:07.875Z,99198.75
2019-05-19T15:17:36.354Z,99198.70
2019-05-19T15:20:09.741Z,99197.97
2019-05-19T15:22:38.142Z,99201.27
2019-05-19T15:25:07.478Z,99200.14
2019-05-19T15:27:36.080Z,99195.77
2019-05-19T15:30:12.851Z,99194.83
2019-05-19T15:32:36.307Z,99184.45
2019-05-19T15:35:06.716Z,99184.87
2019-05-19T15:37:35.821Z,99181.65
2019-05-19T15:40:09.786Z,99178.73
2019-05-19T15:42:38.215Z,99183.19
2019-05-19T15:45:07.659Z,99172.22
2019-05-19T15:47:36.141Z,99172.61
2019-05-19T15:50:07.386Z,99171.38
2019-05-19T15:52:35.812Z,99182.29
2019-05-19T15:55:05.670Z,99173.34
2019-05-19T15:57:34.406Z,99182.42
2019-05-19T16:00:04.594Z,99181.00
2019-05-19T16:02:33.121Z,99185.30
2019-05-19T16:05:01.771Z,99184.92
2019-05-19T16:07:30.492Z,99189.61
2019-05-19T16:09:58.980Z,99192.49
2019-05-19T16:12:27.383Z,99197.46
2019-05-19T16:14:55.914Z,99196.36
2019-05-19T16:17:24.375Z,99199.45
2019-05-19T16:19:52.806Z,99194.72
2019-05-19T16:22:21.267Z,99195.96
2019-05-19T16:24:49.855Z,99197.23
2019-05-19T16:27:18.248Z,99190.81
2019-05-19T16:29:46.769Z,99186.28
2019-05-19T16:32:15.266Z,99187.57
2019-05-19T16:34:43.847Z,99189.32
2019-05-19T16:37:12.253Z,99186.81
2019-05-19T16:39:40.973Z,99185.65
2019-05-19T16:42:09.443Z,99185.02
2019-05-19T16:44:37.846Z,99174.82
2019-05-19T16:47:06.246Z,99177.22
2019-05-19T16:49:34.671Z,99176.17
2019-05-19T16:52:03.114Z,99178.20
2019-05-19T16:54:33.363Z,99179.37
2019-05-19T16:57:01.866Z,99182.91
2019-05-19T16:59:30.272Z,99182.14
2019-05-19T17:01:59.260Z,99190.63
2019-05-19T17:04:29.672Z,99187.98
2019-05-19T17:06:58.094Z,99194.14
2019-05-19T17:09:26.636Z,99192.03
2019-05-19T17:11:55.039Z,99194.83
2019-05-19T17:14:23.564Z,99190.69
2019-05-19T17:16:52.083Z,99192.43
2019-05-19T17:19:20.591Z,99193.84
2019-05-19T17:21:49.240Z,99186.81
2019-05-19T17:24:17.713Z,99192.72
2019-05-19T17:26:46.113Z,99190.11
2019-05-19T17:29:14.639Z,99185.47
2019-05-19T17:31:43.110Z,99190.43
2019-05-19T17:34:11.612Z,99189.53
2019-05-19T17:36:40.125Z,99192.54
2019-05-19T17:39:08.662Z,99199.67
2019-05-19T17:41:37.135Z,99205.29
2019-05-19T17:44:05.636Z,99200.04
2019-05-19T17:46:34.178Z,99203.97
2019-05-19T17:49:02.757Z,99202.70
2019-05-19T17:51:31.196Z,99210.88
2019-05-19T17:53:59.745Z,99216.39
2019-05-19T17:56:29.164Z,99209.89
2019-05-19T17:58:58.140Z,99210.25
2019-05-19T18:01:26.745Z,99205.73
2019-05-19T18:03:55.187Z,99211.41
2019-05-19T18:06:23.660Z,99216.80
2019-05-19T18:08:52.062Z,99221.61
2019-05-19T18:11:20.685Z,99221.24
2019-05-19T18:13:49.100Z,99230.58
2019-05-19T18:16:17.522Z,99235.14
2019-05-19T18:18:45.981Z,99243.91
2019-05-19T18:21:14.376Z,99245.13
2019-05-19T18:23:42.982Z,99240.30
2019-05-19T18:26:11.474Z,99246.25
2019-05-19T18:28:39.908Z,99244.54
2019-05-19T18:31:08.360Z,99249.80
2019-05-19T18:33:36.884Z,99247.84
2019-05-19T18:36:05.318Z,99245.44
2019-05-19T18:38:33.767Z,99242.99
2019-05-19T18:41:02.178Z,99236.73
2019-05-19T18:43:30.636Z,99234.05
2019-05-19T18:45:59.040Z,99233.88
2019-05-19T18:48:27.531Z,99238.32
2019-05-19T18:50:55.957Z,99240.95
2019-05-19T18:53:24.450Z,99246.54
2019-05-19T18:55:52.961Z,99249.11
2019-05-19T18:58:21.459Z,99251.19
2019-05-19T19:00:49.947Z,99250.07
2019-05-19T19:03:18.556Z,99252.02
2019-05-19T19:05:47.653Z,99263.01
2019-05-19T19:08:16.068Z,99263.67
2019-05-19T19:10:44.758Z,99262.92
2019-05-19T19:13:13.152Z,99269.28
2019-05-19T19:15:41.590Z,99272.04
2019-05-19T19:18:10.120Z,99276.89
2019-05-19T19:20:38.815Z,99271.58
2019-05-19T19:23:07.322Z,99268.03
2019-05-19T19:25:35.698Z,99272.50
2019-05-19T19:28:04.280Z,99269.52
2019-05-19T19:30:32.688Z,99278.69
2019-05-19T19:33:01.139Z,99280.92
2019-05-19T19:35:38.632Z,99294.06
2019-05-19T19:37:59.901Z,99290.42
2019-05-19T19:40:30.819Z,99291.42
2019-05-19T19:43:00.668Z,99294.72
2019-05-19T19:45:29.860Z,99296.20
2019-05-19T19:48:01.564Z,99300.23
2019-05-19T19:50:30.477Z,99296.52
2019-05-19T19:52:58.893Z,99299.95
2019-05-19T19:55:27.464Z,99302.34
2019-05-19T19:57:56.066Z,99293.78
2019-05-19T20:00:30.253Z,99300.77
2019-05-19T20:02:58.719Z,99298.83
2019-05-19T20:05:27.167Z,99296.27
2019-05-19T20:07:55.683Z,99297.08
2019-05-19T20:10:24.108Z,99292.53
2019-05-19T20:12:52.516Z,99297.98
2019-05-19T20:15:20.964Z,99290.34
2019-05-19T20:17:49.358Z,99293.80
2019-05-19T20:20:17.899Z,99293.39
2019-05-19T20:22:46.331Z,99291.09
2019-05-19T20:25:14.721Z,99296.53
2019-05-19T20:27:43.623Z,99294.00
2019-05-19T20:30:12.034Z,99289.45
2019-05-19T20:32:40.438Z,99296.64
2019-05-19T20:35:09.195Z,99300.19
2019-05-19T20:37:37.596Z,99292.91
2019-05-19T20:40:11.022Z,99292.53
2019-05-19T20:42:39.436Z,99291.13
2019-05-19T20:45:08.182Z,99292.72
2019-05-19T20:47:36.703Z,99289.25
2019-05-19T20:50:06.686Z,99292.66
2019-05-19T20:52:35.097Z,99291.08
2019-05-19T20:55:04.268Z,99292.42
2019-05-19T20:57:32.732Z,99295.03
2019-05-19T21:00:01.210Z,99295.14
2019-05-19T21:02:29.663Z,99295.11
2019-05-19T21:04:58.092Z,99301.38
2019-05-19T21:07:26.501Z,99299.58
2019-05-19T21:09:54.932Z,99301.18
2019-05-19T21:12:23.472Z,99310.45
2019-05-19T21:14:51.886Z,99300.39
2019-05-19T21:17:20.420Z,99305.01
2019-05-19T21:19:48.816Z,99304.19
2019-05-19T21:22:17.249Z,99302.31
2019-05-19T21:24:45.690Z,99302.17
2019-05-19T21:27:14.513Z,99302.91
2019-05-19T21:29:42.940Z,99299.73
2019-05-19T21:32:11.491Z,99300.65
2019-05-19T21:34:39.922Z,99300.77
2019-05-19T21:37:08.501Z,99297.19
2019-05-19T21:39:37.016Z,99300.99
2019-05-19T21:42:05.538Z,99296.78
2019-05-19T21:44:33.988Z,99295.95
2019-05-19T21:47:02.522Z,99303.27
2019-05-19T21:49:30.926Z,99311.09
2019-05-19T21:51:59.337Z,99304.39
2019-05-19T21:54:27.924Z,99302.35
2019-05-19T21:56:56.349Z,99303.47
2019-05-19T21:59:24.750Z,99305.64
2019-05-19T22:01:53.416Z,99303.09
2019-05-19T22:04:21.841Z,99309.98
2019-05-19T22:06:52.000Z,99311.24
2019-05-19T22:09:20.472Z,99321.02
2019-05-19T22:11:48.929Z,99325.70
2019-05-19T22:14:17.375Z,99328.90
2019-05-19T22:16:45.819Z,99329.67
2019-05-19T22:19:15.949Z,99320.94
2019-05-19T22:21:46.600Z,99319.81
2019-05-19T22:24:15.055Z,99324.06
2019-05-19T22:26:43.443Z,99327.73
2019-05-19T22:29:11.871Z,99333.69
2019-05-19T22:31:40.464Z,99334.95
2019-05-19T22:34:08.859Z,99336.08
2019-05-19T22:36:37.297Z,99334.56
2019-05-19T22:39:06.887Z,99332.86
2019-05-19T22:41:35.345Z,99328.97
2019-05-19T22:44:03.883Z,99328.38
2019-05-19T22:46:32.299Z,99330.18
2019-05-19T22:49:00.898Z,99331.73
2019-05-19T22:51:29.311Z,99329.66
2019-05-19T22:53:57.759Z,99332.04
2019-05-19T22:56:26.213Z,99337.55
2019-05-19T22:58:54.607Z,99340.95
2019-05-19T23:01:26.075Z,99335.59
2019-05-19T23:03:54.399Z,99340.69
2019-05-19T23:06:22.822Z,99338.86
2019-05-19T23:08:51.326Z,99335.61
2019-05-19T23:11:19.851Z,99331.54
2019-05-19T23:13:48.317Z,99337.70
2019-05-19T23:16:16.821Z,99330.72
2019-05-19T23:18:45.313Z,99325.23
2019-05-19T23:21:13.757Z,99312.06
2019-05-19T23:23:42.172Z,99305.97
2019-05-19T23:26:10.650Z,99298.02
2019-05-19T23:28:39.101Z,99294.83
2019-05-19T23:31:07.531Z,99305.30
2019-05-19T23:33:35.941Z,99310.53
2019-05-19T23:36:04.393Z,99309.60
2019-05-19T23:38:33.007Z,99314.64
2019-05-19T23:41:01.498Z,99305.67
2019-05-19T23:43:29.947Z,99306.34
2019-05-19T23:45:58.368Z,99307.30
2019-05-19T23:48:26.773Z,99310.06
2019-05-19T23:50:55.201Z,99311.83
2019-05-19T23:53:23.639Z,99307.27
2019-05-19T23:55:52.069Z,99305.48
2019-05-19T23:58:20.457Z,99306.79
